createdAt,value
2023-02-28T13:45:15.776Z,101512.71
2023-02-28T13:45:51.306Z,101511.59
2023-02-28T13:46:49.008Z,101504.53
2023-02-28T13:47:48.254Z,101500.21
2023-02-28T13:48:48.929Z,101504.79
2023-02-28T13:49:47.868Z,101503.24
2023-02-28T13:50:47.919Z,101501.85
2023-02-28T13:51:49.230Z,101502.28
2023-02-28T13:52:50.009Z,101501.96
2023-02-28T13:53:50.854Z,101500.78
2023-02-28T13:54:48.980Z,101498.73
2023-02-28T13:55:47.829Z,101496.74
2023-02-28T13:56:49.035Z,101488.2
2023-02-28T13:57:49.878Z,101488.78
2023-02-28T13:58:49.707Z,101489.68
2023-02-28T13:59:49.756Z,101492.22
2023-02-28T14:00:47.628Z,101491.79
2023-02-28T14:01:49.704Z,101490
2023-02-28T14:02:49.695Z,101484.48
2023-02-28T14:03:49.746Z,101486.77
2023-02-28T14:04:50.856Z,101488.49
2023-02-28T14:05:48.637Z,101484.73
2023-02-28T14:06:49.741Z,101483.42
2023-02-28T14:07:48.829Z,101484.28
2023-02-28T14:08:49.669Z,101480.82
2023-02-28T14:09:50.680Z,101479.89
2023-02-28T14:10:48.696Z,101476.36
2023-02-28T14:11:49.551Z,101479.64
2023-02-28T14:12:48.517Z,101477.98
2023-02-28T14:13:48.902Z,101478.43
2023-02-28T14:14:48.537Z,101485.39
2023-02-28T14:15:48.584Z,101486.01
2023-02-28T14:16:49.703Z,101478.57
2023-02-28T14:17:49.539Z,101483.2
2023-02-28T14:18:50.671Z,101485.45
2023-02-28T14:19:48.559Z,101480.5
2023-02-28T14:20:49.375Z,101487.59
2023-02-28T14:21:47.472Z,101484.2
2023-02-28T14:22:47.519Z,101480.71
2023-02-28T14:23:48.609Z,101477.71
2023-02-28T14:24:48.419Z,101477.85
